Time;durP1;ratioP1;P1;durP2;ratioP2;P2;SDS_P1;SDS_P2;PMS_P1;PMS_P2;Temp;Humidity;BMP_temperature;BMP_pressure;BME280_temperature;BME280_humidity;BME280_pressure;Samples;Min_cycle;Max_cycle;Signal;HPM_P1;HPM_P2
2024/03/01 00:01:52;;;;;;;24.17;7.55;;;5.80;99.90;;;;;;4991258;28;20506;-67
2024/03/01 00:04:19;;;;;;;14.02;6.32;;;5.80;99.90;;;;;;5007573;28;20030;-67
2024/03/01 00:06:45;;;;;;;17.90;7.50;;;5.90;99.90;;;;;;4989811;28;20735;-67
2024/03/01 00:09:11;;;;;;;13.13;7.53;;;6.00;99.90;;;;;;5006417;28;20048;-67
2024/03/01 00:11:36;;;;;;;22.17;6.45;;;5.90;99.90;;;;;;5007608;28;20022;-67
2024/03/01 00:14:03;;;;;;;16.48;7.53;;;5.80;99.90;;;;;;5005013;28;20450;-67
2024/03/01 00:16:29;;;;;;;15.27;6.43;;;5.80;99.90;;;;;;5008087;28;20026;-67
2024/03/01 00:18:54;;;;;;;13.90;7.63;;;5.80;99.90;;;;;;5004156;28;20036;-67
2024/03/01 00:21:20;;;;;;;21.10;8.60;;;5.80;99.90;;;;;;4993807;28;20436;-67
2024/03/01 00:23:46;;;;;;;21.50;8.13;;;5.90;99.90;;;;;;4992617;28;20537;-67
2024/03/01 00:26:12;;;;;;;12.50;6.25;;;5.90;99.90;;;;;;5008449;28;20240;-67
2024/03/01 00:28:37;;;;;;;12.00;7.53;;;5.90;99.90;;;;;;5003480;28;20064;-67
2024/03/01 00:31:04;;;;;;;23.90;7.55;;;5.80;99.90;;;;;;4993534;28;20033;-67
2024/03/01 00:33:30;;;;;;;24.25;9.48;;;5.80;99.90;;;;;;5003044;28;20030;-67
2024/03/01 00:35:56;;;;;;;15.95;7.90;;;5.80;99.90;;;;;;4992111;28;20390;-67
2024/03/01 00:38:22;;;;;;;16.42;7.93;;;5.70;99.90;;;;;;4986545;28;20113;-67
2024/03/01 00:40:47;;;;;;;18.27;8.20;;;5.70;99.90;;;;;;4992225;28;20069;-67
2024/03/01 00:43:14;;;;;;;14.25;7.47;;;5.70;99.90;;;;;;5002427;28;20077;-67
2024/03/01 00:45:40;;;;;;;23.70;8.85;;;5.60;99.90;;;;;;5005961;28;20430;-67
2024/03/01 00:48:11;;;;;;;16.10;6.53;;;5.60;99.90;;;;;;4988006;28;20052;-67
2024/03/01 00:50:38;;;;;;;15.98;6.38;;;5.60;99.90;;;;;;4986143;28;20019;-67
2024/03/01 00:53:04;;;;;;;15.82;7.88;;;5.50;99.90;;;;;;5002528;28;20038;-67
2024/03/01 00:55:31;;;;;;;14.13;6.13;;;5.50;99.90;;;;;;5008064;28;20027;-67
2024/03/01 00:57:57;;;;;;;17.70;8.00;;;5.50;99.90;;;;;;4989237;28;20050;-67
2024/03/01 01:00:23;;;;;;;14.40;6.80;;;5.50;99.90;;;;;;5008262;28;20387;-67
2024/03/01 01:02:49;;;;;;;19.65;5.72;;;5.50;99.90;;;;;;4986007;28;20042;-67
2024/03/01 01:05:15;;;;;;;13.07;6.75;;;5.50;99.90;;;;;;5007744;28;20034;-67
2024/03/01 01:07:41;;;;;;;13.95;6.97;;;5.50;99.90;;;;;;4990406;28;20034;-67
2024/03/01 01:10:08;;;;;;;14.23;8.10;;;5.50;99.90;;;;;;4992710;28;20402;-67
2024/03/01 01:12:34;;;;;;;13.70;5.75;;;5.50;99.90;;;;;;5001870;28;20096;-68
2024/03/01 01:15:00;;;;;;;21.65;7.68;;;5.50;99.90;;;;;;4991245;28;20026;-68
2024/03/01 01:17:27;;;;;;;13.73;6.85;;;5.50;99.90;;;;;;4986959;28;20038;-68
2024/03/01 01:19:57;;;;;;;12.95;6.07;;;5.50;99.90;;;;;;4988078;23;20112;-68
2024/03/01 01:22:24;;;;;;;16.58;7.00;;;5.50;99.90;;;;;;4991612;28;20514;-68
2024/03/01 01:24:50;;;;;;;13.18;5.07;;;5.50;99.90;;;;;;4988799;28;20065;-68
2024/03/01 01:27:18;;;;;;;11.85;5.63;;;5.50;99.90;;;;;;4992394;28;20026;-68
2024/03/01 01:29:44;;;;;;;21.77;6.00;;;5.40;99.90;;;;;;4988907;28;20034;-68
2024/03/01 01:32:10;;;;;;;7.85;5.00;;;5.40;99.90;;;;;;5007684;28;20037;-68
2024/03/01 01:34:36;;;;;;;14.40;5.63;;;5.30;99.90;;;;;;5003035;28;20034;-68
2024/03/01 01:37:03;;;;;;;12.63;6.93;;;5.30;99.90;;;;;;5007509;28;20503;-68
2024/03/01 01:39:30;;;;;;;17.33;6.40;;;5.30;99.90;;;;;;5006438;28;20160;-68
2024/03/01 01:41:56;;;;;;;14.43;8.20;;;5.20;99.90;;;;;;5007458;28;20045;-68
2024/03/01 01:44:22;;;;;;;14.63;5.53;;;5.20;99.90;;;;;;4988000;28;20038;-68
2024/03/01 01:46:51;;;;;;;22.15;7.65;;;5.10;99.90;;;;;;4992421;28;20649;-68
2024/03/01 01:49:19;;;;;;;13.30;6.75;;;5.20;99.90;;;;;;4986984;28;20061;-68
2024/03/01 01:51:48;;;;;;;16.77;6.25;;;5.30;99.90;;;;;;5007360;28;20022;-68
2024/03/01 01:54:15;;;;;;;19.42;7.50;;;5.30;99.90;;;;;;4988107;28;20729;-68
2024/03/01 01:56:42;;;;;;;19.77;8.30;;;5.30;99.90;;;;;;5007330;28;20050;-68
2024/03/01 01:59:10;;;;;;;14.68;7.53;;;5.40;99.90;;;;;;5002567;28;20512;-68
2024/03/01 02:01:36;;;;;;;15.93;7.05;;;5.40;99.90;;;;;;5006757;28;20471;-68
2024/03/01 02:04:03;;;;;;;18.85;8.18;;;5.30;99.90;;;;;;4988129;28;20045;-68
2024/03/01 02:06:29;;;;;;;16.27;7.80;;;5.20;99.90;;;;;;5001245;28;20049;-68
2024/03/01 02:08:55;;;;;;;14.70;6.65;;;5.20;99.90;;;;;;5002981;28;20372;-68
2024/03/01 02:11:22;;;;;;;14.52;6.47;;;5.20;99.90;;;;;;4990256;28;20036;-68
2024/03/01 02:13:54;;;;;;;18.85;7.28;;;5.20;99.90;;;;;;4986658;28;20057;-68
2024/03/01 02:16:20;;;;;;;14.30;6.82;;;5.20;99.90;;;;;;4990196;28;20030;-68
2024/03/01 02:18:48;;;;;;;14.80;7.32;;;5.30;99.90;;;;;;4987245;28;20113;-68
2024/03/01 02:21:15;;;;;;;12.68;5.93;;;5.30;99.90;;;;;;4991615;28;20026;-68
2024/03/01 02:23:41;;;;;;;15.73;6.13;;;5.30;99.90;;;;;;5002002;28;20113;-68
2024/03/01 02:26:07;;;;;;;14.95;6.25;;;5.30;99.90;;;;;;4992051;28;20060;-68
2024/03/01 02:28:41;;;;;;;14.85;7.45;;;5.40;99.90;;;;;;5002290;28;20035;-68
2024/03/01 02:31:07;;;;;;;18.27;7.38;;;5.30;99.90;;;;;;5006054;28;20026;-68
2024/03/01 02:33:33;;;;;;;16.25;7.65;;;5.30;99.90;;;;;;5002038;28;20395;-68
2024/03/01 02:35:58;;;;;;;16.55;7.05;;;5.50;99.90;;;;;;4991519;28;20039;-69
2024/03/01 02:38:24;;;;;;;13.05;5.78;;;5.50;99.90;;;;;;4987588;28;20443;-68
2024/03/01 02:40:50;;;;;;;17.33;8.20;;;5.40;99.90;;;;;;4991592;28;20030;-68
2024/03/01 02:43:16;;;;;;;20.08;8.77;;;5.40;99.90;;;;;;4985633;28;20030;-68
2024/03/01 02:45:41;;;;;;;17.40;5.35;;;5.30;99.90;;;;;;4991517;28;20036;-69
2024/03/01 02:48:07;;;;;;;12.80;5.45;;;5.30;99.90;;;;;;4985979;28;20031;-68
2024/03/01 02:50:33;;;;;;;15.30;7.53;;;5.20;99.90;;;;;;5006650;28;20085;-69
2024/03/01 02:52:59;;;;;;;16.30;7.72;;;5.10;99.90;;;;;;5003415;28;20396;-68
2024/03/01 02:55:25;;;;;;;19.75;8.35;;;5.10;99.90;;;;;;4990227;28;20387;-68
2024/03/01 02:57:53;;;;;;;10.63;6.55;;;5.00;99.90;;;;;;5005011;28;20026;-68
2024/03/01 03:00:20;;;;;;;19.80;7.13;;;5.00;99.90;;;;;;5013521;28;20034;-68
2024/03/01 03:02:49;;;;;;;16.80;8.00;;;5.10;99.90;;;;;;4989762;28;20482;-68
2024/03/01 03:05:15;;;;;;;18.65;7.45;;;5.00;99.90;;;;;;4987537;28;20026;-68
2024/03/01 03:07:41;;;;;;;18.67;7.47;;;5.10;99.90;;;;;;5006165;28;20034;-69
2024/03/01 03:10:07;;;;;;;14.68;6.28;;;5.10;99.90;;;;;;4987806;28;20018;-68
2024/03/01 03:12:33;;;;;;;19.98;6.70;;;5.10;99.90;;;;;;4991290;28;20410;-68
2024/03/01 03:15:00;;;;;;;16.77;9.52;;;5.10;99.90;;;;;;5004552;28;20038;-68
2024/03/01 03:17:27;;;;;;;13.02;6.80;;;5.10;99.90;;;;;;4990129;28;20042;-69
2024/03/01 03:19:53;;;;;;;10.13;5.93;;;5.10;99.90;;;;;;4985743;28;20049;-68
2024/03/01 03:22:19;;;;;;;17.98;6.47;;;5.10;99.90;;;;;;5005812;28;20081;-68
2024/03/01 03:24:45;;;;;;;16.70;7.20;;;5.10;99.90;;;;;;4986860;28;20459;-69
2024/03/01 03:27:12;;;;;;;15.25;7.82;;;5.20;99.90;;;;;;4994809;28;20030;-68
2024/03/01 03:29:38;;;;;;;21.60;8.65;;;5.30;99.90;;;;;;5005182;28;20027;-68
2024/03/01 03:32:04;;;;;;;19.92;9.55;;;5.30;99.90;;;;;;4993339;28;20030;-68
2024/03/01 03:34:30;;;;;;;14.23;8.27;;;5.30;99.90;;;;;;5004936;28;20446;-68
2024/03/01 03:36:57;;;;;;;16.55;8.00;;;5.30;99.90;;;;;;5010051;28;20037;-68
2024/03/01 03:39:22;;;;;;;19.92;7.93;;;5.40;99.90;;;;;;5005118;28;20431;-69
2024/03/01 03:41:48;;;;;;;15.35;6.88;;;5.40;99.90;;;;;;4995083;28;20117;-68
2024/03/01 03:44:14;;;;;;;11.80;6.40;;;5.40;99.90;;;;;;5005017;28;20046;-68
2024/03/01 03:46:40;;;;;;;15.65;6.13;;;5.30;99.90;;;;;;4994400;28;20027;-69
2024/03/01 03:49:08;;;;;;;17.35;7.13;;;5.40;99.90;;;;;;4990251;28;20233;-69
2024/03/01 03:51:37;;;;;;;21.55;9.50;;;5.40;99.90;;;;;;4994455;28;20483;-69
2024/03/01 03:54:04;;;;;;;15.48;7.45;;;5.40;99.90;;;;;;5007953;28;20026;-69
2024/03/01 03:56:33;;;;;;;11.98;6.65;;;5.40;99.90;;;;;;5008885;28;20031;-69
2024/03/01 03:58:59;;;;;;;20.73;7.35;;;5.40;99.90;;;;;;4990064;28;20070;-69
2024/03/01 04:01:25;;;;;;;19.90;9.05;;;5.20;99.90;;;;;;4994119;28;20387;-69
2024/03/01 04:03:52;;;;;;;16.08;7.53;;;5.20;99.90;;;;;;5005005;28;20045;-68
2024/03/01 04:06:18;;;;;;;18.13;6.25;;;5.10;99.90;;;;;;5009029;28;20030;-68
2024/03/01 04:08:44;;;;;;;17.13;7.32;;;5.00;99.90;;;;;;4993306;28;20073;-68
2024/03/01 04:11:10;;;;;;;17.13;7.82;;;5.00;99.90;;;;;;4993868;28;20030;-68
2024/03/01 04:13:37;;;;;;;14.25;7.43;;;5.00;99.90;;;;;;4989754;28;20022;-68
2024/03/01 04:16:06;;;;;;;12.93;6.70;;;5.00;99.90;;;;;;5008655;28;20031;-68
2024/03/01 04:18:33;;;;;;;14.68;6.53;;;5.10;99.90;;;;;;4987783;28;20041;-68
2024/03/01 04:21:00;;;;;;;14.80;7.47;;;5.10;99.90;;;;;;4992805;28;20034;-68
2024/03/01 04:23:26;;;;;;;15.63;10.15;;;5.20;99.90;;;;;;5003694;28;20049;-68
2024/03/01 04:25:54;;;;;;;15.82;7.90;;;5.20;99.90;;;;;;5008821;28;20039;-69
2024/03/01 04:28:21;;;;;;;23.00;8.05;;;5.20;99.90;;;;;;4989774;28;20495;-68
2024/03/01 04:30:48;;;;;;;17.40;9.18;;;5.20;99.90;;;;;;4993753;28;20146;-68
2024/03/01 04:33:14;;;;;;;14.88;6.25;;;5.20;99.90;;;;;;4988988;28;20031;-69
2024/03/01 04:35:41;;;;;;;18.42;8.73;;;5.20;99.90;;;;;;4993341;28;20093;-68
2024/03/01 04:38:07;;;;;;;11.20;6.82;;;5.30;99.90;;;;;;4991438;28;20471;-68
2024/03/01 04:40:33;;;;;;;20.95;8.50;;;5.30;99.90;;;;;;4992074;28;20448;-68
2024/03/01 04:42:59;;;;;;;13.27;6.82;;;5.40;99.90;;;;;;4989955;28;20026;-68
2024/03/01 04:45:28;;;;;;;13.32;7.75;;;5.50;99.90;;;;;;5006798;28;20034;-68
2024/03/01 04:47:54;;;;;;;15.77;8.48;;;5.60;99.90;;;;;;5006603;28;20030;-69
2024/03/01 04:50:19;;;;;;;20.90;8.48;;;5.60;99.90;;;;;;4991046;28;20029;-68
2024/03/01 04:52:46;;;;;;;23.90;8.70;;;5.50;99.90;;;;;;4992191;28;20034;-69
2024/03/01 04:55:12;;;;;;;21.05;7.63;;;5.50;99.90;;;;;;5004966;28;20461;-69
2024/03/01 04:57:37;;;;;;;28.42;8.80;;;5.50;99.90;;;;;;4991347;28;20060;-69
2024/03/01 05:00:13;;;;;;;16.08;8.65;;;5.50;99.90;;;;;;4987948;28;20038;-69
2024/03/01 05:02:43;;;;;;;20.33;9.43;;;5.60;99.90;;;;;;4995639;28;20034;-69
2024/03/01 05:05:16;;;;;;;25.67;9.77;;;5.60;99.90;;;;;;5007245;28;20037;-69
2024/03/01 05:07:42;;;;;;;19.95;8.60;;;5.60;99.90;;;;;;5000257;28;20026;-69
2024/03/01 05:10:08;;;;;;;13.88;6.10;;;5.70;99.90;;;;;;4989617;28;20026;-69
2024/03/01 05:12:42;;;;;;;11.90;6.40;;;5.70;99.90;;;;;;5009850;28;20034;-69
2024/03/01 05:15:12;;;;;;;25.42;12.25;;;5.80;99.90;;;;;;5019242;28;20034;-69
2024/03/01 05:17:41;;;;;;;14.32;9.38;;;5.80;99.90;;;;;;4993809;28;20117;-69
2024/03/01 05:20:10;;;;;;;31.00;10.70;;;5.80;99.90;;;;;;4987559;28;20113;-69
2024/03/01 05:22:39;;;;;;;19.33;8.52;;;5.90;99.90;;;;;;4991336;28;20038;-69
2024/03/01 05:25:14;;;;;;;19.52;9.25;;;5.90;99.90;;;;;;5006312;28;20036;-69
2024/03/01 05:27:50;;;;;;;18.27;9.07;;;5.90;99.90;;;;;;4984960;28;20034;-69
2024/03/01 05:30:21;;;;;;;24.00;8.82;;;5.90;99.90;;;;;;4990889;28;20037;-70
2024/03/01 05:32:48;;;;;;;15.63;6.70;;;5.90;99.90;;;;;;5010378;28;20022;-69
2024/03/01 05:35:18;;;;;;;16.92;10.30;;;5.90;99.90;;;;;;5011400;28;20030;-68
2024/03/01 05:37:44;;;;;;;12.23;7.53;;;5.90;99.90;;;;;;5013183;28;20471;-69
2024/03/01 05:40:12;;;;;;;19.27;8.57;;;5.90;99.90;;;;;;5004287;28;20026;-69
2024/03/01 05:42:41;;;;;;;29.40;8.85;;;5.90;99.90;;;;;;5006715;28;20042;-70
2024/03/01 05:45:08;;;;;;;19.58;9.10;;;5.90;99.90;;;;;;4986881;28;20529;-69
2024/03/01 05:47:42;;;;;;;18.20;8.25;;;5.90;99.90;;;;;;5007135;28;20065;-69
2024/03/01 05:50:11;;;;;;;16.10;8.52;;;5.80;99.90;;;;;;4987896;28;20676;-68
2024/03/01 05:52:40;;;;;;;19.17;7.25;;;5.80;99.90;;;;;;4998513;28;20030;-68
2024/03/01 05:55:09;;;;;;;19.55;6.75;;;5.80;99.90;;;;;;5003051;28;20034;-68
2024/03/01 05:57:36;;;;;;;22.50;9.48;;;5.80;99.90;;;;;;4990702;28;20026;-69
2024/03/01 06:00:09;;;;;;;32.20;8.23;;;5.80;99.90;;;;;;5003206;28;20066;-69
2024/03/01 06:02:38;;;;;;;24.08;8.65;;;5.80;99.90;;;;;;5005975;28;20052;-69
2024/03/01 06:05:04;;;;;;;20.60;8.30;;;5.80;99.90;;;;;;5005765;28;20030;-70
2024/03/01 06:07:30;;;;;;;22.88;8.10;;;5.90;99.90;;;;;;4989558;28;20046;-72
2024/03/01 06:09:56;;;;;;;19.58;8.65;;;5.90;99.90;;;;;;4987481;28;20022;-69
2024/03/01 06:12:22;;;;;;;18.52;7.60;;;5.90;99.90;;;;;;4990565;28;20119;-69
2024/03/01 06:14:47;;;;;;;27.52;8.20;;;5.90;99.90;;;;;;5001849;28;20499;-69
2024/03/01 06:17:14;;;;;;;13.13;6.80;;;5.90;99.90;;;;;;4990522;28;20076;-67
2024/03/01 06:19:40;;;;;;;20.65;8.25;;;5.90;99.90;;;;;;4987318;28;20030;-68
2024/03/01 06:22:06;;;;;;;18.33;9.23;;;5.90;99.90;;;;;;4990300;28;20113;-68
2024/03/01 06:24:32;;;;;;;16.67;6.95;;;6.00;99.90;;;;;;5001671;28;20563;-68
2024/03/01 06:26:58;;;;;;;19.13;7.80;;;6.00;99.90;;;;;;5006781;28;20026;-67
2024/03/01 06:29:23;;;;;;;18.48;8.27;;;6.00;99.90;;;;;;4986948;28;20049;-67
2024/03/01 06:31:50;;;;;;;14.13;9.35;;;6.00;99.90;;;;;;4992005;28;20033;-67
2024/03/01 06:34:16;;;;;;;19.73;8.75;;;6.00;99.90;;;;;;4986303;28;20028;-70
2024/03/01 06:36:42;;;;;;;14.05;6.68;;;6.10;99.90;;;;;;4997978;28;20042;-73
2024/03/01 06:39:08;;;;;;;20.92;7.80;;;6.10;99.90;;;;;;4990159;28;20026;-69
2024/03/01 06:41:34;;;;;;;18.35;8.60;;;6.10;99.90;;;;;;4991204;28;20473;-68
2024/03/01 06:44:00;;;;;;;20.80;8.23;;;6.10;99.90;;;;;;4986298;28;20077;-67
2024/03/01 06:46:27;;;;;;;16.35;8.40;;;6.20;99.90;;;;;;5006130;28;20053;-68
2024/03/01 06:48:53;;;;;;;11.48;6.22;;;6.20;99.90;;;;;;4987394;28;20033;-68
2024/03/01 06:51:18;;;;;;;22.35;8.43;;;6.30;99.90;;;;;;5006215;28;20027;-67
2024/03/01 06:53:44;;;;;;;15.95;9.05;;;6.30;99.90;;;;;;5001747;28;20031;-68
2024/03/01 06:56:12;;;;;;;19.65;9.18;;;6.30;99.90;;;;;;4991413;28;20380;-66
2024/03/01 06:58:39;;;;;;;19.85;9.00;;;6.40;99.90;;;;;;4985448;28;20031;-67
2024/03/01 07:01:05;;;;;;;14.63;8.00;;;6.40;99.90;;;;;;4992698;28;20209;-68
2024/03/01 07:03:31;;;;;;;12.20;7.57;;;6.50;99.90;;;;;;4993706;28;22173;-68
2024/03/01 07:05:57;;;;;;;18.25;9.45;;;6.50;99.90;;;;;;4997492;28;20058;-67
2024/03/01 07:08:23;;;;;;;13.48;6.43;;;6.60;99.90;;;;;;5009155;28;20065;-72
2024/03/01 07:10:50;;;;;;;15.18;7.40;;;6.60;99.90;;;;;;4995339;28;20084;-69
2024/03/01 07:13:16;;;;;;;16.60;6.78;;;6.60;99.90;;;;;;5005202;28;20823;-68
2024/03/01 07:15:41;;;;;;;13.20;7.18;;;6.60;99.90;;;;;;4993526;28;20109;-67
2024/03/01 07:18:07;;;;;;;31.40;9.13;;;6.60;99.90;;;;;;5008039;23;20042;-65
2024/03/01 07:20:33;;;;;;;14.15;7.28;;;6.70;99.90;;;;;;4995222;28;20121;-65
2024/03/01 07:22:59;;;;;;;18.23;7.88;;;6.70;99.90;;;;;;4987772;28;20372;-65
2024/03/01 07:25:24;;;;;;;23.02;9.90;;;6.80;99.90;;;;;;4993385;28;20034;-65
2024/03/01 07:27:50;;;;;;;15.77;5.68;;;6.80;99.90;;;;;;4993436;28;20122;-65
2024/03/01 07:30:16;;;;;;;19.58;6.82;;;6.80;99.90;;;;;;4992124;28;20031;-66
2024/03/01 07:32:42;;;;;;;15.13;7.82;;;6.90;99.90;;;;;;4993559;28;20381;-66
2024/03/01 07:35:08;;;;;;;18.73;7.63;;;6.90;99.90;;;;;;4991070;28;20030;-66
2024/03/01 07:37:34;;;;;;;17.33;6.38;;;7.00;99.90;;;;;;4994933;28;20022;-66
2024/03/01 07:40:00;;;;;;;18.20;6.35;;;7.10;99.90;;;;;;5002066;28;20364;-66
2024/03/01 07:42:26;;;;;;;18.52;7.82;;;7.20;99.90;;;;;;4993231;28;20042;-66
2024/03/01 07:44:53;;;;;;;15.35;7.35;;;7.30;99.90;;;;;;4989750;28;20030;-66
2024/03/01 07:47:19;;;;;;;17.63;8.57;;;7.40;99.90;;;;;;4993415;28;20391;-66
2024/03/01 07:49:48;;;;;;;19.13;8.68;;;7.40;99.90;;;;;;4988740;28;20018;-66
2024/03/01 07:52:14;;;;;;;16.38;7.28;;;7.40;99.90;;;;;;4990542;28;20030;-66
2024/03/01 07:54:40;;;;;;;15.95;6.43;;;7.50;99.90;;;;;;4988315;28;20029;-66
2024/03/01 07:57:06;;;;;;;21.27;7.32;;;7.40;99.90;;;;;;4993201;28;20042;-67
2024/03/01 07:59:32;;;;;;;18.02;6.88;;;7.50;99.90;;;;;;4989857;28;20048;-66
2024/03/01 08:01:59;;;;;;;18.45;7.03;;;7.50;99.90;;;;;;4994565;28;20080;-66
2024/03/01 08:04:26;;;;;;;13.05;6.32;;;7.50;99.90;;;;;;4987923;28;20058;-67
2024/03/01 08:06:53;;;;;;;20.65;7.20;;;7.50;99.90;;;;;;5006187;28;20038;-66
2024/03/01 08:09:31;;;;;;;15.85;6.03;;;7.50;99.90;;;;;;5004347;28;20424;-66
2024/03/01 08:11:58;;;;;;;14.38;6.45;;;7.50;99.90;;;;;;4993178;28;20026;-66
2024/03/01 08:14:29;;;;;;;12.82;6.90;;;7.50;99.90;;;;;;4988586;28;20026;-66
2024/03/01 08:16:56;;;;;;;15.63;6.50;;;7.60;99.90;;;;;;4977016;28;20061;-66
2024/03/01 08:19:34;;;;;;;13.45;7.07;;;7.50;99.90;;;;;;4993138;28;20038;-66
2024/03/01 08:22:15;;;;;;;14.35;7.40;;;7.60;99.90;;;;;;4992604;28;20069;-66
2024/03/01 08:24:45;;;;;;;12.68;7.28;;;7.70;99.90;;;;;;4993290;28;20071;-66
2024/03/01 08:27:15;;;;;;;24.25;7.38;;;7.70;99.90;;;;;;4992647;28;20105;-66
2024/03/01 08:29:42;;;;;;;18.80;6.78;;;7.70;99.90;;;;;;4985577;28;20130;-66
2024/03/01 08:32:30;;;;;;;12.60;6.57;;;7.80;99.90;;;;;;5008819;28;20027;-66
2024/03/01 08:34:58;;;;;;;10.18;5.68;;;7.80;99.90;;;;;;5002941;28;20069;-66
2024/03/01 08:37:28;;;;;;;17.80;7.70;;;7.90;99.90;;;;;;4991239;28;20037;-66
2024/03/01 08:39:55;;;;;;;22.35;7.68;;;7.90;99.90;;;;;;4989042;28;20498;-66
2024/03/01 08:42:24;;;;;;;17.38;6.57;;;7.90;99.90;;;;;;4993607;28;20034;-66
2024/03/01 08:44:59;;;;;;;9.75;6.38;;;8.00;99.90;;;;;;4991247;28;20034;-65
2024/03/01 08:47:37;;;;;;;18.75;6.82;;;8.10;99.90;;;;;;4991044;28;20129;-66
2024/03/01 08:50:24;;;;;;;18.75;7.47;;;8.20;99.90;;;;;;4999662;28;20479;-65
2024/03/01 08:52:51;;;;;;;12.88;6.25;;;8.30;99.90;;;;;;4985145;28;20054;-65
2024/03/01 08:55:17;;;;;;;22.08;8.63;;;8.40;99.90;;;;;;4989759;28;20062;-65
2024/03/01 08:57:44;;;;;;;21.00;6.32;;;8.50;99.90;;;;;;4992321;28;20092;-65
2024/03/01 09:00:41;;;;;;;19.20;6.82;;;8.60;99.90;;;;;;4985579;28;20054;-65
2024/03/01 09:03:10;;;;;;;11.30;5.72;;;8.70;99.90;;;;;;5003079;28;20065;-66
2024/03/01 09:05:40;;;;;;;17.92;6.45;;;8.80;99.90;;;;;;4994380;28;20089;-65
2024/03/01 09:08:17;;;;;;;22.17;7.35;;;8.80;99.90;;;;;;4988899;28;20122;-65
2024/03/01 09:10:43;;;;;;;12.40;5.70;;;9.00;99.90;;;;;;5008313;28;20019;-66
2024/03/01 09:13:09;;;;;;;15.00;6.13;;;9.10;99.90;;;;;;4972880;28;20061;-65
2024/03/01 09:15:44;;;;;;;19.23;6.53;;;9.10;99.90;;;;;;4992916;28;20380;-66
2024/03/01 09:18:31;;;;;;;16.90;7.20;;;9.20;99.90;;;;;;4984656;28;20384;-66
2024/03/01 09:20:57;;;;;;;14.70;7.03;;;9.40;99.90;;;;;;4987758;28;20150;-65
2024/03/01 09:23:23;;;;;;;28.98;7.40;;;9.50;99.90;;;;;;4984744;28;20069;-65
2024/03/01 09:25:48;;;;;;;13.02;7.32;;;9.70;99.90;;;;;;4988307;28;20042;-65
2024/03/01 09:28:17;;;;;;;11.93;5.72;;;9.80;99.90;;;;;;4984580;28;20154;-65
2024/03/01 09:30:50;;;;;;;15.30;5.50;;;9.80;99.90;;;;;;4992891;28;20137;-65
2024/03/01 09:33:20;;;;;;;16.33;6.93;;;10.00;99.90;;;;;;4986854;28;20038;-65
2024/03/01 09:35:50;;;;;;;12.60;6.35;;;10.10;99.90;;;;;;4976151;28;20030;-65
2024/03/01 09:38:17;;;;;;;12.00;6.22;;;10.30;99.90;;;;;;4987664;28;20101;-65
2024/03/01 09:40:49;;;;;;;16.58;4.72;;;10.40;99.90;;;;;;4992934;28;20041;-65
2024/03/01 09:43:18;;;;;;;11.23;5.00;;;10.40;99.90;;;;;;4985888;28;20041;-70
2024/03/01 09:46:16;;;;;;;13.07;5.40;;;10.40;99.90;;;;;;4992725;28;20061;-65
2024/03/01 09:49:25;;;;;;;10.43;5.07;;;10.50;99.90;;;;;;4986944;28;20039;-65
2024/03/01 09:52:29;;;;;;;15.10;6.13;;;10.90;99.90;;;;;;4992579;28;20084;-65
2024/03/01 09:55:31;;;;;;;10.88;5.18;;;11.10;99.90;;;;;;4985322;28;20032;-66
2024/03/01 09:58:12;;;;;;;7.82;4.32;;;11.30;99.90;;;;;;4983913;28;20063;-66
2024/03/01 10:01:04;;;;;;;15.15;4.22;;;11.20;99.90;;;;;;4983400;28;20041;-65
2024/03/01 10:04:12;;;;;;;10.73;4.30;;;11.60;99.90;;;;;;4986209;28;20440;-65
2024/03/01 10:07:11;;;;;;;8.13;4.50;;;11.30;99.90;;;;;;4992284;28;20113;-65
2024/03/01 10:09:58;;;;;;;8.15;4.38;;;11.30;99.90;;;;;;4981556;28;20038;-65
2024/03/01 10:12:44;;;;;;;6.70;3.03;;;11.40;99.90;;;;;;4992349;28;20030;-65
2024/03/01 10:15:38;;;;;;;9.43;4.05;;;11.30;99.90;;;;;;4986741;28;20030;-65
2024/03/01 10:18:16;;;;;;;11.98;4.03;;;11.10;99.90;;;;;;4991351;28;20446;-66
2024/03/01 10:21:02;;;;;;;8.70;3.53;;;11.20;99.90;;;;;;4984415;28;20030;-66
2024/03/01 10:23:39;;;;;;;7.13;3.70;;;10.90;99.90;;;;;;4969426;28;20031;-65
2024/03/01 10:26:28;;;;;;;8.27;3.30;;;10.80;99.90;;;;;;4990718;28;20034;-66
2024/03/01 10:29:06;;;;;;;7.30;3.08;;;10.90;99.90;;;;;;4985233;28;20062;-66
2024/03/01 10:31:49;;;;;;;5.50;3.40;;;10.90;99.90;;;;;;4991667;28;20036;-66
2024/03/01 10:34:30;;;;;;;9.15;2.78;;;10.70;99.90;;;;;;4986282;28;20491;-66
2024/03/01 10:37:04;;;;;;;7.88;2.92;;;10.80;99.90;;;;;;4990870;28;20041;-66
2024/03/01 10:39:39;;;;;;;10.32;4.25;;;10.90;99.90;;;;;;4985270;28;20518;-66
2024/03/01 10:42:25;;;;;;;5.25;2.20;;;10.90;99.90;;;;;;5006895;28;20380;-66
2024/03/01 10:45:25;;;;;;;5.22;2.03;;;10.90;99.90;;;;;;4985496;28;20018;-66
2024/03/01 10:47:51;;;;;;;3.13;1.48;;;10.60;99.90;;;;;;4981709;28;20042;-66
2024/03/01 10:50:22;;;;;;;3.58;1.83;;;10.50;99.90;;;;;;4985881;28;20556;-66
2024/03/01 10:53:04;;;;;;;3.97;2.05;;;10.40;99.90;;;;;;4990343;28;20023;-66
2024/03/01 10:55:46;;;;;;;10.02;3.10;;;10.40;99.90;;;;;;4991207;28;20030;-66
2024/03/01 10:58:16;;;;;;;;;;;10.50;99.90;;;;;;4985776;28;20046;-65
2024/03/01 11:01:12;;;;;;;3.22;1.58;;;10.50;99.90;;;;;;5006303;28;20423;-65
2024/03/01 11:03:49;;;;;;;4.32;1.98;;;10.40;99.90;;;;;;4986309;28;20048;-65
2024/03/01 11:06:49;;;;;;;5.22;0.90;;;10.30;99.90;;;;;;4991290;28;20026;-65
2024/03/01 11:09:39;;;;;;;1.95;1.00;;;10.30;99.90;;;;;;4985011;28;20031;-65
2024/03/01 11:12:13;;;;;;;0.38;0.32;;;10.30;99.90;;;;;;4993333;28;20054;-65
2024/03/01 11:14:58;;;;;;;0.65;0.35;;;10.30;99.90;;;;;;4989525;28;20034;-65
2024/03/01 11:17:27;;;;;;;0.77;0.57;;;10.20;99.90;;;;;;4993435;28;20030;-65
2024/03/01 11:20:03;;;;;;;4.72;0.90;;;10.20;99.90;;;;;;4984539;28;20034;-65
2024/03/01 11:22:30;;;;;;;1.27;0.68;;;10.20;99.90;;;;;;4989858;28;20450;-65
2024/03/01 11:25:14;;;;;;;1.25;0.77;;;10.20;99.90;;;;;;4990926;28;20029;-65
2024/03/01 11:28:04;;;;;;;1.48;0.98;;;10.10;99.90;;;;;;4982679;28;20113;-65
2024/03/01 11:30:34;;;;;;;2.25;0.70;;;10.00;99.90;;;;;;4989016;28;20110;-65
2024/03/01 11:33:03;;;;;;;0.25;0.25;;;10.00;99.90;;;;;;4986382;28;20035;-65
2024/03/01 11:35:50;;;;;;;2.47;0.90;;;9.90;99.90;;;;;;4988389;28;20034;-65
2024/03/01 11:38:22;;;;;;;4.28;0.82;;;10.00;99.90;;;;;;4984304;28;20049;-67
2024/03/01 11:41:12;;;;;;;0.65;0.40;;;10.00;99.90;;;;;;4991269;28;20026;-65
2024/03/01 11:43:54;;;;;;;2.75;1.10;;;10.00;99.90;;;;;;4985540;28;20050;-65
2024/03/01 11:46:34;;;;;;;1.83;1.00;;;10.10;99.90;;;;;;4991908;28;20030;-65
2024/03/01 11:50:06;;;;;;;1.67;0.75;;;10.20;99.90;;;;;;4988123;28;20108;-65
2024/03/01 11:52:55;;;;;;;3.58;0.95;;;10.20;99.90;;;;;;4972125;28;20170;-65
2024/03/01 11:56:05;;;;;;;1.20;0.75;;;10.10;99.90;;;;;;4956455;28;20054;-65
2024/03/01 11:58:46;;;;;;;2.50;0.65;;;10.00;99.90;;;;;;4966746;28;20463;-65
2024/03/01 12:01:40;;;;;;;1.00;0.82;;;10.10;99.90;;;;;;4957334;28;20042;-65
2024/03/01 12:04:57;;;;;;;1.95;0.93;;;10.10;99.90;;;;;;4963367;28;20086;-65
2024/03/01 12:07:52;;;;;;;1.00;0.32;;;10.20;99.90;;;;;;4970005;28;20065;-65
2024/03/01 12:11:00;;;;;;;4.07;0.90;;;10.20;99.90;;;;;;4969208;28;20093;-65
2024/03/01 12:13:31;;;;;;;1.10;0.50;;;10.20;99.90;;;;;;4966499;28;20043;-65
2024/03/01 12:16:07;;;;;;;0.08;0.08;;;10.20;99.90;;;;;;4956308;28;20030;-65
2024/03/01 12:18:58;;;;;;;0.50;0.20;;;10.20;99.90;;;;;;4966431;28;20495;-65
2024/03/01 12:21:54;;;;;;;0.93;0.73;;;10.10;99.90;;;;;;4957322;28;20074;-65
2024/03/01 12:24:26;;;;;;;0.63;0.30;;;10.10;99.90;;;;;;4965969;28;20114;-66
2024/03/01 12:27:18;;;;;;;0.82;0.57;;;10.40;99.90;;;;;;4972240;28;20027;-65
2024/03/01 12:30:23;;;;;;;0.77;0.38;;;10.50;99.90;;;;;;4980066;28;20129;-65
2024/03/01 12:33:18;;;;;;;2.33;0.88;;;10.50;99.90;;;;;;4990760;28;20482;-66
2024/03/01 12:36:19;;;;;;;1.45;0.82;;;10.40;99.90;;;;;;4985123;28;20030;-66
2024/03/01 12:39:02;;;;;;;3.08;1.02;;;10.50;99.90;;;;;;4988367;28;20495;-65
2024/03/01 12:42:05;;;;;;;3.60;0.80;;;10.80;99.90;;;;;;4993826;28;20034;-65
2024/03/01 12:44:52;;;;;;;2.17;1.10;;;11.30;99.90;;;;;;4995108;28;20104;-66
2024/03/01 12:47:45;;;;;;;0.80;0.77;;;11.90;99.90;;;;;;5013974;28;20046;-65
2024/03/01 12:50:43;;;;;;;1.75;1.00;;;12.40;99.90;;;;;;4989854;28;20038;-65
2024/03/01 12:53:36;;;;;;;1.35;0.60;;;12.80;99.90;;;;;;4983090;28;20043;-64
2024/03/01 12:56:30;;;;;;;2.78;0.75;;;12.00;99.90;;;;;;4987102;28;20498;-65
2024/03/01 12:59:31;;;;;;;1.23;0.77;;;11.70;99.90;;;;;;4987514;28;20034;-65
2024/03/01 13:02:20;;;;;;;1.70;0.80;;;11.80;99.90;;;;;;4992427;28;20027;-65
2024/03/01 13:05:13;;;;;;;1.27;0.82;;;12.20;99.90;;;;;;4975671;28;20512;-65
2024/03/01 13:07:40;;;;;;;1.42;0.93;;;12.30;99.90;;;;;;4992222;28;20044;-65
2024/03/01 13:10:13;;;;;;;2.08;0.57;;;12.60;99.90;;;;;;4989920;28;20043;-65
2024/03/01 13:12:42;;;;;;;1.25;0.60;;;12.60;99.90;;;;;;4992859;28;20038;-65